createdAt,value
2016-05-27T00:00:52.200Z,1008.75
2016-05-27T00:01:52.202Z,1008.74
2016-05-27T00:02:52.205Z,1008.75
2016-05-27T00:03:52.208Z,1008.75
2016-05-27T00:04:52.211Z,1008.76
2016-05-27T00:05:52.228Z,1008.74
2016-05-27T00:06:52.216Z,1008.75
2016-05-27T00:07:52.234Z,1008.73
2016-05-27T00:08:52.236Z,1008.7
2016-05-27T00:09:52.239Z,1008.68
2016-05-27T00:10:52.242Z,1008.72
2016-05-27T00:11:52.244Z,1008.7
2016-05-27T00:12:52.263Z,1008.67
2016-05-27T00:13:52.265Z,1008.69
2016-05-27T00:14:52.269Z,1008.63
2016-05-27T00:15:52.271Z,1008.67
2016-05-27T00:16:52.273Z,1008.7
2016-05-27T00:17:52.276Z,1008.63
2016-05-27T00:18:52.513Z,1008.69
2016-05-27T00:19:52.297Z,1008.69
2016-05-27T00:20:52.300Z,1008.67
2016-05-27T00:21:52.302Z,1008.66
2016-05-27T00:22:52.304Z,1008.67
2016-05-27T00:23:52.307Z,1008.7
2016-05-27T00:24:52.327Z,1008.72
2016-05-27T00:25:52.329Z,1008.69
2016-05-27T00:26:52.332Z,1008.71
2016-05-27T00:27:52.334Z,1008.71
2016-05-27T00:28:52.353Z,1008.73
2016-05-27T00:29:52.339Z,1008.72
2016-05-27T00:30:52.358Z,1008.71
2016-05-27T00:31:52.361Z,1008.67
2016-05-27T00:32:52.364Z,1008.7
2016-05-27T00:33:52.538Z,1008.7
2016-05-27T00:34:52.369Z,1008.7
2016-05-27T00:35:52.371Z,1008.72
2016-05-27T00:36:52.374Z,1008.71
2016-05-27T00:37:52.377Z,1008.73
2016-05-27T00:38:52.380Z,1008.71
2016-05-27T00:39:52.397Z,1008.69
2016-05-27T00:40:52.400Z,1008.7
2016-05-27T00:41:52.403Z,1008.75
2016-05-27T00:42:52.405Z,1008.72
2016-05-27T00:43:52.408Z,1008.71
2016-05-27T00:44:52.411Z,1008.72
2016-05-27T00:45:52.430Z,1008.72
2016-05-27T00:46:52.432Z,1008.74
2016-05-27T00:47:52.435Z,1008.7
2016-05-27T00:48:52.437Z,1008.72
2016-05-27T00:49:52.441Z,1008.73
2016-05-27T00:50:52.443Z,1008.74
2016-05-27T00:51:52.446Z,1008.72
2016-05-27T00:52:52.464Z,1008.74
2016-05-27T00:53:52.467Z,1008.76
2016-05-27T00:54:52.470Z,1008.76
2016-05-27T00:55:52.472Z,1008.76
2016-05-27T00:56:52.475Z,1008.76
2016-05-27T00:57:52.493Z,1008.8
2016-05-27T00:58:52.495Z,1008.8
2016-05-27T00:59:52.499Z,1008.8
2016-05-27T01:00:52.501Z,1008.79
2016-05-27T01:01:52.503Z,1008.82
2016-05-27T01:02:52.507Z,1008.82
2016-05-27T01:03:52.509Z,1008.83
2016-05-27T01:04:52.512Z,1008.82
2016-05-27T01:05:52.530Z,1008.85
2016-05-27T01:06:52.533Z,1008.88
2016-05-27T01:07:52.536Z,1008.84
2016-05-27T01:08:52.553Z,1008.86
2016-05-27T01:09:52.541Z,1008.86
2016-05-27T01:10:52.543Z,1008.87
2016-05-27T01:11:52.561Z,1008.82
2016-05-27T01:12:52.564Z,1008.85
2016-05-27T01:13:52.567Z,1008.86
2016-05-27T01:14:52.570Z,1008.84
2016-05-27T01:15:52.572Z,1008.83
2016-05-27T01:16:52.575Z,1008.83
2016-05-27T01:17:52.578Z,1008.84
2016-05-27T01:18:52.597Z,1008.79
2016-05-27T01:19:52.599Z,1008.8
2016-05-27T01:20:52.602Z,1008.83
2016-05-27T01:21:52.604Z,1008.83
2016-05-27T01:22:52.608Z,1008.78
2016-05-27T01:23:52.609Z,1008.79
2016-05-27T01:24:52.628Z,1008.79
2016-05-27T01:25:52.631Z,1008.76
2016-05-27T01:26:52.634Z,1008.73
2016-05-27T01:27:52.637Z,1008.75
2016-05-27T01:28:52.640Z,1008.7
2016-05-27T01:29:52.657Z,1008.72
2016-05-27T01:30:52.645Z,1008.77
2016-05-27T01:31:52.662Z,1008.7
2016-05-27T01:32:52.665Z,1008.69
2016-05-27T01:33:52.668Z,1008.73
2016-05-27T01:34:52.671Z,1008.73
2016-05-27T01:35:52.673Z,1008.77
2016-05-27T01:36:52.675Z,1008.81
2016-05-27T01:37:52.695Z,1008.8
2016-05-27T01:38:52.697Z,1008.81
2016-05-27T01:39:52.700Z,1008.86
2016-05-27T01:40:52.702Z,1008.82
2016-05-27T01:41:52.705Z,1008.87
2016-05-27T01:42:52.708Z,1008.82
2016-05-27T01:43:52.711Z,1008.86
2016-05-27T01:44:52.729Z,1008.84
2016-05-27T01:45:52.732Z,1008.87
2016-05-27T01:46:52.735Z,1008.86
2016-05-27T01:47:52.737Z,1008.84
2016-05-27T01:48:52.740Z,1008.87
2016-05-27T01:49:52.745Z,1008.9
2016-05-27T01:50:52.782Z,1008.89
2016-05-27T01:51:52.804Z,1008.87
2016-05-27T01:52:52.826Z,1008.86
2016-05-27T01:53:52.848Z,1008.87
2016-05-27T01:54:52.868Z,1008.91
2016-05-27T01:55:52.878Z,1008.9
2016-05-27T01:56:52.887Z,1008.93
2016-05-27T01:57:52.928Z,1008.95
2016-05-27T01:58:52.923Z,1008.96
2016-05-27T01:59:52.931Z,1008.97
2016-05-27T02:00:52.937Z,1008.98
2016-05-27T02:01:52.943Z,1008.99
2016-05-27T02:02:52.947Z,1008.95
2016-05-27T02:03:52.984Z,1008.98
2016-05-27T02:04:52.973Z,1009.02
2016-05-27T02:05:52.976Z,1009.02
2016-05-27T02:06:52.980Z,1009.01
2016-05-27T02:07:52.984Z,1009.07
2016-05-27T02:08:53.004Z,1009.08
2016-05-27T02:09:53.006Z,1009.06
2016-05-27T02:10:53.010Z,1009.06
2016-05-27T02:11:53.028Z,1009.07
2016-05-27T02:12:53.016Z,1009.05
2016-05-27T02:13:53.019Z,1009.09
2016-05-27T02:14:53.021Z,1009.04
2016-05-27T02:15:53.040Z,1009.06
2016-05-27T02:16:53.043Z,1009.03
2016-05-27T02:17:53.046Z,1009.02
2016-05-27T02:18:53.486Z,1009.04
2016-05-27T02:19:53.052Z,1009.03
2016-05-27T02:20:53.054Z,1009
2016-05-27T02:21:53.071Z,1009.01
2016-05-27T02:22:53.074Z,1009.01
2016-05-27T02:23:53.077Z,1009.01
2016-05-27T02:24:53.080Z,1009.01
2016-05-27T02:25:53.098Z,1009.03
2016-05-27T02:26:53.085Z,1009.01
2016-05-27T02:27:53.103Z,1009
2016-05-27T02:28:53.106Z,1009.02
2016-05-27T02:29:53.109Z,1009
2016-05-27T02:30:53.112Z,1009.01
2016-05-27T02:31:53.114Z,1009.01
2016-05-27T02:32:53.117Z,1009.06
2016-05-27T02:33:53.135Z,1009.04
2016-05-27T02:34:53.139Z,1009.03
2016-05-27T02:35:53.141Z,1009.07
2016-05-27T02:36:53.144Z,1009.05
2016-05-27T02:37:53.146Z,1009.07
2016-05-27T02:38:53.150Z,1009.07
2016-05-27T02:39:53.167Z,1009.13
2016-05-27T02:40:53.169Z,1009.09
2016-05-27T02:41:53.172Z,1009.17
2016-05-27T02:42:53.175Z,1009.13
2016-05-27T02:43:53.178Z,1009.13
2016-05-27T02:44:53.197Z,1009.17
2016-05-27T02:45:53.183Z,1009.13
2016-05-27T02:46:53.201Z,1009.09
2016-05-27T02:47:53.204Z,1009.16
2016-05-27T02:48:53.207Z,1009.11
2016-05-27T02:49:53.210Z,1009.15
2016-05-27T02:50:53.213Z,1009.16
2016-05-27T02:51:53.215Z,1009.17
2016-05-27T02:52:53.218Z,1009.22
2016-05-27T02:53:53.236Z,1009.22
2016-05-27T02:54:53.238Z,1009.24
2016-05-27T02:55:53.241Z,1009.22
2016-05-27T02:56:53.244Z,1009.26
2016-05-27T02:57:53.246Z,1009.23
2016-05-27T02:58:53.249Z,1009.23
2016-05-27T02:59:53.252Z,1009.21
2016-05-27T03:00:53.255Z,1009.22
2016-05-27T03:01:53.274Z,1009.25
2016-05-27T03:02:53.276Z,1009.23
2016-05-27T03:03:53.388Z,1009.22
2016-05-27T03:04:53.297Z,1009.24
2016-05-27T03:05:53.300Z,1009.18
2016-05-27T03:06:53.303Z,1009.24
2016-05-27T03:07:53.306Z,1009.26
2016-05-27T03:08:53.308Z,1009.26
2016-05-27T03:09:53.311Z,1009.24
2016-05-27T03:10:53.314Z,1009.21
2016-05-27T03:11:53.316Z,1009.2
2016-05-27T03:12:53.319Z,1009.21
2016-05-27T03:13:53.336Z,1009.2
2016-05-27T03:14:53.340Z,1009.2
2016-05-27T03:15:53.342Z,1009.21
2016-05-27T03:16:53.345Z,1009.22
2016-05-27T03:17:53.347Z,1009.23
2016-05-27T03:18:53.350Z,1009.2
2016-05-27T03:19:53.353Z,1009.19
2016-05-27T03:20:53.372Z,1009.2
2016-05-27T03:21:53.358Z,1009.21
2016-05-27T03:22:53.377Z,1009.21
2016-05-27T03:23:53.380Z,1009.19
2016-05-27T03:24:53.382Z,1009.2
2016-05-27T03:25:53.385Z,1009.19
2016-05-27T03:26:53.387Z,1009.2
2016-05-27T03:27:53.406Z,1009.19
2016-05-27T03:28:53.409Z,1009.19
2016-05-27T03:29:53.412Z,1009.19
2016-05-27T03:30:53.414Z,1009.23
2016-05-27T03:31:53.417Z,1009.21
2016-05-27T03:32:53.420Z,1009.18
2016-05-27T03:33:53.422Z,1009.17
2016-05-27T03:34:53.440Z,1009.16
2016-05-27T03:35:53.443Z,1009.13
2016-05-27T03:36:53.445Z,1009.1
2016-05-27T03:37:53.448Z,1009.09
2016-05-27T03:38:53.467Z,1009.07
2016-05-27T03:39:53.453Z,1009.06
2016-05-27T03:40:53.456Z,1009.06
2016-05-27T03:41:53.475Z,1009.09
2016-05-27T03:42:53.478Z,1009.03
2016-05-27T03:43:53.480Z,1009.1
2016-05-27T03:44:53.483Z,1009.1
2016-05-27T03:45:53.486Z,1009.15
2016-05-27T03:46:53.488Z,1009.17
2016-05-27T03:47:53.491Z,1009.19
2016-05-27T03:48:53.494Z,1009.25
2016-05-27T03:49:53.511Z,1009.25
2016-05-27T03:50:53.514Z,1009.27
2016-05-27T03:51:53.517Z,1009.25
2016-05-27T03:52:53.519Z,1009.26
2016-05-27T03:53:53.522Z,1009.24
2016-05-27T03:54:53.541Z,1009.23
2016-05-27T03:55:53.543Z,1009.26
2016-05-27T03:56:53.546Z,1009.24
2016-05-27T03:57:53.549Z,1009.25
2016-05-27T03:58:53.551Z,1009.24
2016-05-27T03:59:53.554Z,1009.23
2016-05-27T04:00:53.557Z,1009.22
2016-05-27T04:01:53.575Z,1009.21
2016-05-27T04:02:53.562Z,1009.18
2016-05-27T04:03:53.596Z,1009.16
2016-05-27T04:04:53.584Z,1009.2
2016-05-27T04:05:53.586Z,1009.18
2016-05-27T04:06:53.589Z,1009.19
2016-05-27T04:07:53.592Z,1009.2
2016-05-27T04:08:53.594Z,1009.2
2016-05-27T04:09:53.612Z,1009.19
2016-05-27T04:10:53.615Z,1009.18
2016-05-27T04:11:53.618Z,1009.17
2016-05-27T04:12:53.620Z,1009.23
2016-05-27T04:13:53.623Z,1009.24
2016-05-27T04:14:53.625Z,1009.26
2016-05-27T04:15:53.644Z,1009.23
2016-05-27T04:16:53.647Z,1009.25
2016-05-27T04:17:53.650Z,1009.2
2016-05-27T04:18:53.652Z,1009.19
2016-05-27T04:19:53.655Z,1009.17
2016-05-27T04:20:53.658Z,1009.16
2016-05-27T04:21:53.660Z,1009.17
2016-05-27T04:22:53.663Z,1009.17
2016-05-27T04:23:53.682Z,1009.16
2016-05-27T04:24:53.684Z,1009.15
2016-05-27T04:25:53.688Z,1009.11
2016-05-27T04:26:53.690Z,1009.1
2016-05-27T04:27:53.692Z,1009.08
2016-05-27T04:28:53.695Z,1009.04
2016-05-27T04:29:53.698Z,1009
2016-05-27T04:30:53.700Z,1009.02
2016-05-27T04:31:53.718Z,1009
2016-05-27T04:32:53.721Z,1009.02
2016-05-27T04:33:54.036Z,1009.02
2016-05-27T04:34:53.726Z,1009.06
2016-05-27T04:35:53.729Z,1009.08
2016-05-27T04:36:53.731Z,1009.1
2016-05-27T04:37:53.750Z,1009.11
2016-05-27T04:38:53.753Z,1009.17
2016-05-27T04:39:53.756Z,1009.2
2016-05-27T04:40:53.758Z,1009.2
2016-05-27T04:41:53.761Z,1009.21
2016-05-27T04:42:53.764Z,1009.21
2016-05-27T04:43:53.767Z,1009.25
2016-05-27T04:44:53.784Z,1009.24
2016-05-27T04:45:53.787Z,1009.27
2016-05-27T04:46:53.790Z,1009.31
2016-05-27T04:47:53.792Z,1009.31
2016-05-27T04:48:53.842Z,1009.3
2016-05-27T04:49:53.813Z,1009.31
2016-05-27T04:50:53.800Z,1009.26
2016-05-27T04:51:53.819Z,1009.2
2016-05-27T04:52:53.806Z,1009.27
2016-05-27T04:53:53.840Z,1009.21
2016-05-27T04:54:53.827Z,1009.2
2016-05-27T04:55:53.830Z,1009.22
2016-05-27T04:56:53.832Z,1009.19
2016-05-27T04:57:53.835Z,1009.16
2016-05-27T04:58:53.854Z,1009.16
2016-05-27T04:59:53.857Z,1009.16
2016-05-27T05:00:53.859Z,1009.14
2016-05-27T05:01:53.862Z,1009.19
2016-05-27T05:02:53.879Z,1009.2
2016-05-27T05:03:53.867Z,1009.18
2016-05-27T05:04:53.870Z,1009.14
2016-05-27T05:05:53.887Z,1009.16
2016-05-27T05:06:53.890Z,1009.18
2016-05-27T05:07:53.893Z,1009.16
2016-05-27T05:08:53.896Z,1009.18
2016-05-27T05:09:53.898Z,1009.18
2016-05-27T05:10:53.901Z,1009.19
2016-05-27T05:11:53.920Z,1009.19
2016-05-27T05:12:53.923Z,1009.17
2016-05-27T05:13:53.926Z,1009.19
2016-05-27T05:14:53.928Z,1009.15
2016-05-27T05:15:53.931Z,1009.12
2016-05-27T05:16:53.933Z,1009.13
2016-05-27T05:17:53.936Z,1009.1
2016-05-27T05:18:53.955Z,1009.12
2016-05-27T05:19:53.957Z,1009.09
2016-05-27T05:20:53.960Z,1009.07
2016-05-27T05:21:53.962Z,1009.13
2016-05-27T05:22:53.965Z,1009.13
2016-05-27T05:23:53.968Z,1009.12
2016-05-27T05:24:53.986Z,1009.1
2016-05-27T05:25:53.988Z,1009.1
2016-05-27T05:26:53.991Z,1009.11
2016-05-27T05:27:53.994Z,1009.13
2016-05-27T05:28:53.997Z,1009.1
2016-05-27T05:29:54.000Z,1009.12
2016-05-27T05:30:54.017Z,1009.12
2016-05-27T05:31:54.021Z,1009.13
2016-05-27T05:32:54.024Z,1009.17
2016-05-27T05:33:54.026Z,1009.18
2016-05-27T05:34:54.029Z,1009.17
2016-05-27T05:35:54.032Z,1009.15
2016-05-27T05:36:54.034Z,1009.17
2016-05-27T05:37:54.037Z,1009.16
2016-05-27T05:38:54.055Z,1009.15
2016-05-27T05:39:54.057Z,1009.14
2016-05-27T05:40:54.060Z,1009.14
2016-05-27T05:41:54.062Z,1009.11
2016-05-27T05:42:54.066Z,1009.1
2016-05-27T05:43:54.068Z,1009.1
2016-05-27T05:44:54.086Z,1009.12
2016-05-27T05:45:54.089Z,1009.1
2016-05-27T05:46:54.092Z,1009.15
2016-05-27T05:47:54.094Z,1009.16
2016-05-27T05:48:54.488Z,1009.17
2016-05-27T05:49:54.100Z,1009.16
2016-05-27T05:50:54.119Z,1009.12
2016-05-27T05:51:54.121Z,1009.17
2016-05-27T05:52:54.124Z,1009.17
2016-05-27T05:53:54.126Z,1009.19
2016-05-27T05:54:54.130Z,1009.21
2016-05-27T05:55:54.132Z,1009.23
2016-05-27T05:56:54.150Z,1009.23
2016-05-27T05:57:54.152Z,1009.27
2016-05-27T05:58:54.155Z,1009.25
2016-05-27T05:59:54.158Z,1009.25
2016-05-27T06:00:54.161Z,1009.24
2016-05-27T06:01:54.164Z,1009.27
2016-05-27T06:02:54.182Z,1009.26
2016-05-27T06:03:54.185Z,1009.27
2016-05-27T06:04:54.187Z,1009.25
2016-05-27T06:05:54.190Z,1009.27
2016-05-27T06:06:54.193Z,1009.23
2016-05-27T06:07:54.212Z,1009.27
2016-05-27T06:08:54.198Z,1009.29
2016-05-27T06:09:54.217Z,1009.26
2016-05-27T06:10:54.220Z,1009.26
2016-05-27T06:11:54.222Z,1009.27
2016-05-27T06:12:54.224Z,1009.28
2016-05-27T06:13:54.228Z,1009.29
2016-05-27T06:14:54.230Z,1009.28
2016-05-27T06:15:54.233Z,1009.29
2016-05-27T06:16:54.250Z,1009.28
2016-05-27T06:17:54.254Z,1009.31
2016-05-27T06:18:54.256Z,1009.29
2016-05-27T06:19:54.258Z,1009.28
2016-05-27T06:20:54.262Z,1009.28
2016-05-27T06:21:54.264Z,1009.29
2016-05-27T06:22:54.283Z,1009.28
2016-05-27T06:23:54.285Z,1009.28
2016-05-27T06:24:54.288Z,1009.28
2016-05-27T06:25:54.291Z,1009.28
2016-05-27T06:26:54.293Z,1009.26
2016-05-27T06:27:54.296Z,1009.3
2016-05-27T06:28:54.314Z,1009.33
2016-05-27T06:29:54.317Z,1009.37
2016-05-27T06:30:54.319Z,1009.39
2016-05-27T06:31:54.322Z,1009.38
2016-05-27T06:32:54.325Z,1009.39
2016-05-27T06:33:54.359Z,1009.4
2016-05-27T06:34:54.330Z,1009.4
2016-05-27T06:35:54.349Z,1009.4
2016-05-27T06:36:54.351Z,1009.42
2016-05-27T06:37:54.354Z,1009.46
2016-05-27T06:38:54.357Z,1009.47
2016-05-27T06:39:54.375Z,1009.52
2016-05-27T06:40:54.363Z,1009.51
2016-05-27T06:41:54.381Z,1009.45
2016-05-27T06:42:54.383Z,1009.41
2016-05-27T06:43:54.387Z,1009.43
2016-05-27T06:44:54.389Z,1009.44
2016-05-27T06:45:54.391Z,1009.42
2016-05-27T06:46:54.394Z,1009.43
2016-05-27T06:47:54.397Z,1009.38
2016-05-27T06:48:54.415Z,1009.39
2016-05-27T06:49:54.417Z,1009.36
2016-05-27T06:50:54.420Z,1009.39
2016-05-27T06:51:54.423Z,1009.4
2016-05-27T06:52:54.441Z,1009.37
2016-05-27T06:53:54.444Z,1009.4
2016-05-27T06:54:54.431Z,1009.35
2016-05-27T06:55:54.449Z,1009.35
2016-05-27T06:56:54.453Z,1009.31
2016-05-27T06:57:54.455Z,1009.33
2016-05-27T06:58:54.458Z,1009.28
2016-05-27T06:59:54.476Z,1009.29
2016-05-27T07:00:54.478Z,1009.29
2016-05-27T07:01:54.482Z,1009.27
2016-05-27T07:02:54.485Z,1009.28
2016-05-27T07:03:54.487Z,1009.32
2016-05-27T07:04:54.504Z,1009.32
2016-05-27T07:05:54.493Z,1009.31
2016-05-27T07:06:54.510Z,1009.33
2016-05-27T07:07:54.512Z,1009.29
2016-05-27T07:08:54.516Z,1009.32
2016-05-27T07:09:54.518Z,1009.36
2016-05-27T07:10:54.521Z,1009.38
2016-05-27T07:11:54.523Z,1009.38
2016-05-27T07:12:54.542Z,1009.38
2016-05-27T07:13:54.545Z,1009.39
2016-05-27T07:14:54.547Z,1009.39
2016-05-27T07:15:54.550Z,1009.37
2016-05-27T07:16:54.553Z,1009.4
2016-05-27T07:17:54.555Z,1009.41
2016-05-27T07:18:54.871Z,1009.42
2016-05-27T07:19:54.576Z,1009.38
2016-05-27T07:20:54.579Z,1009.44
2016-05-27T07:21:54.581Z,1009.46
2016-05-27T07:22:54.585Z,1009.5
2016-05-27T07:23:54.587Z,1009.47
2016-05-27T07:24:54.589Z,1009.53
2016-05-27T07:25:54.592Z,1009.53
2016-05-27T07:26:54.611Z,1009.55
2016-05-27T07:27:54.614Z,1009.49
2016-05-27T07:28:54.616Z,1009.47
2016-05-27T07:29:54.619Z,1009.46
2016-05-27T07:30:54.622Z,1009.44
2016-05-27T07:31:54.625Z,1009.45
2016-05-27T07:33:54.645Z,1009.48
2016-05-27T07:34:54.649Z,1009.48
2016-05-27T07:35:54.651Z,1009.47
2016-05-27T07:36:54.654Z,1009.48
2016-05-27T07:37:54.657Z,1009.49
2016-05-27T07:38:54.674Z,1009.5
2016-05-27T07:39:54.676Z,1009.54
2016-05-27T07:40:54.680Z,1009.52
2016-05-27T07:41:54.682Z,1009.53
2016-05-27T07:42:54.685Z,1009.54
2016-05-27T07:43:54.687Z,1009.52
2016-05-27T07:44:54.691Z,1009.49
2016-05-27T07:45:54.692Z,1009.48
2016-05-27T07:46:54.696Z,1009.5
2016-05-27T07:47:54.715Z,1009.48
2016-05-27T07:48:54.717Z,1009.5
2016-05-27T07:49:54.719Z,1009.5
2016-05-27T07:50:54.723Z,1009.48
2016-05-27T07:51:54.725Z,1009.54
2016-05-27T07:52:54.727Z,1009.52
2016-05-27T07:53:54.746Z,1009.52
2016-05-27T07:54:54.749Z,1009.56
2016-05-27T07:55:54.751Z,1009.52
2016-05-27T07:56:54.754Z,1009.54
2016-05-27T07:57:54.757Z,1009.52
2016-05-27T07:58:54.775Z,1009.52
2016-05-27T07:59:54.762Z,1009.54
2016-05-27T08:00:54.781Z,1009.51
2016-05-27T08:01:54.783Z,1009.52
2016-05-27T08:02:54.785Z,1009.53
2016-05-27T08:03:54.898Z,1009.52
2016-05-27T08:04:54.791Z,1009.55
2016-05-27T08:05:54.794Z,1009.55
2016-05-27T08:06:54.796Z,1009.53
2016-05-27T08:07:54.815Z,1009.58
2016-05-27T08:08:54.817Z,1009.57
2016-05-27T08:09:54.821Z,1009.55
2016-05-27T08:10:54.823Z,1009.56
2016-05-27T08:11:54.826Z,1009.56
2016-05-27T08:12:54.828Z,1009.53
2016-05-27T08:13:54.832Z,1009.53
2016-05-27T08:14:54.849Z,1009.58
2016-05-27T08:15:54.852Z,1009.58
2016-05-27T08:16:54.854Z,1009.56
2016-05-27T08:17:54.857Z,1009.56
2016-05-27T08:18:54.876Z,1009.58
2016-05-27T08:19:54.878Z,1009.59
2016-05-27T08:20:54.881Z,1009.56
2016-05-27T08:21:54.884Z,1009.55
2016-05-27T08:22:54.886Z,1009.55
2016-05-27T08:23:54.890Z,1009.6
2016-05-27T08:24:54.908Z,1009.59
2016-05-27T08:25:54.894Z,1009.59
2016-05-27T08:26:54.913Z,1009.6
2016-05-27T08:27:54.916Z,1009.56
2016-05-27T08:28:54.919Z,1009.59
2016-05-27T08:29:54.921Z,1009.56
2016-05-27T08:30:54.924Z,1009.56
2016-05-27T08:31:54.927Z,1009.56
2016-05-27T08:32:54.944Z,1009.6
2016-05-27T08:33:54.947Z,1009.55
2016-05-27T08:34:54.950Z,1009.56
2016-05-27T08:35:54.953Z,1009.58
2016-05-27T08:36:54.971Z,1009.61
2016-05-27T08:37:54.974Z,1009.61
2016-05-27T08:38:54.976Z,1009.59
2016-05-27T08:39:54.979Z,1009.58
2016-05-27T08:40:54.982Z,1009.58
2016-05-27T08:41:55.001Z,1009.57
2016-05-27T08:42:55.003Z,1009.59
2016-05-27T08:43:55.006Z,1009.59
2016-05-27T08:44:55.009Z,1009.6
2016-05-27T08:45:55.011Z,1009.59
2016-05-27T08:46:55.014Z,1009.58
2016-05-27T08:47:55.017Z,1009.61
2016-05-27T08:48:55.034Z,1009.61
2016-05-27T08:49:55.037Z,1009.6
2016-05-27T08:50:55.040Z,1009.59
2016-05-27T08:51:55.043Z,1009.59
2016-05-27T08:52:55.046Z,1009.61
2016-05-27T08:53:55.064Z,1009.6
2016-05-27T08:54:55.067Z,1009.59
2016-05-27T08:55:55.069Z,1009.59
2016-05-27T08:56:55.072Z,1009.6
2016-05-27T08:57:55.075Z,1009.59
2016-05-27T08:58:55.077Z,1009.61
2016-05-27T08:59:55.095Z,1009.63
2016-05-27T09:00:55.097Z,1009.62
2016-05-27T09:01:55.101Z,1009.63
2016-05-27T09:02:55.103Z,1009.66
2016-05-27T09:03:55.106Z,1009.65
2016-05-27T09:04:55.469Z,1009.67
2016-05-27T09:05:55.127Z,1009.65
2016-05-27T09:06:55.130Z,1009.67
2016-05-27T09:07:55.133Z,1009.67
2016-05-27T09:08:55.135Z,1009.67
2016-05-27T09:09:55.138Z,1009.69
2016-05-27T09:10:55.157Z,1009.66
2016-05-27T09:11:55.159Z,1009.67
2016-05-27T09:12:55.162Z,1009.69
2016-05-27T09:13:55.164Z,1009.67
2016-05-27T09:14:55.168Z,1009.7
2016-05-27T09:15:55.185Z,1009.69
2016-05-27T09:16:55.187Z,1009.68
2016-05-27T09:17:55.190Z,1009.69
2016-05-27T09:18:55.194Z,1009.73
2016-05-27T09:19:55.196Z,1009.71
2016-05-27T09:20:55.198Z,1009.71
2016-05-27T09:21:55.217Z,1009.7
2016-05-27T09:22:55.219Z,1009.72
2016-05-27T09:23:55.223Z,1009.7
2016-05-27T09:24:55.226Z,1009.73
2016-05-27T09:25:55.228Z,1009.73
2016-05-27T09:26:55.231Z,1009.7
2016-05-27T09:27:55.249Z,1009.69
2016-05-27T09:28:55.252Z,1009.7
2016-05-27T09:29:55.255Z,1009.71
2016-05-27T09:30:55.272Z,1009.74
2016-05-27T09:31:55.275Z,1009.7
2016-05-27T09:32:55.278Z,1009.72
2016-05-27T09:33:55.280Z,1009.74
2016-05-27T09:34:55.283Z,1009.72
2016-05-27T09:35:55.286Z,1009.72
2016-05-27T09:36:55.305Z,1009.76
2016-05-27T09:37:55.307Z,1009.72
2016-05-27T09:38:55.310Z,1009.76
2016-05-27T09:39:55.313Z,1009.73
2016-05-27T09:40:55.315Z,1009.71
2016-05-27T09:41:55.333Z,1009.75
2016-05-27T09:42:55.336Z,1009.71
2016-05-27T09:43:55.338Z,1009.69
2016-05-27T09:44:55.341Z,1009.71
2016-05-27T09:45:55.344Z,1009.72
2016-05-27T09:46:55.346Z,1009.66
2016-05-27T09:47:55.365Z,1009.68
2016-05-27T09:48:55.368Z,1009.66
2016-05-27T09:49:55.370Z,1009.67
2016-05-27T09:50:55.373Z,1009.66
2016-05-27T09:51:55.376Z,1009.67
2016-05-27T09:52:55.394Z,1009.66
2016-05-27T09:53:55.397Z,1009.67
2016-05-27T09:54:55.400Z,1009.66
2016-05-27T09:55:55.403Z,1009.69
2016-05-27T09:56:55.420Z,1009.69
2016-05-27T09:57:55.408Z,1009.67
2016-05-27T09:58:55.425Z,1009.69
2016-05-27T09:59:55.429Z,1009.67
2016-05-27T10:00:55.431Z,1009.69
2016-05-27T10:01:55.434Z,1009.66
2016-05-27T10:02:55.452Z,1009.61
2016-05-27T10:03:55.455Z,1009.62
2016-05-27T10:04:55.457Z,1009.62
2016-05-27T10:05:55.461Z,1009.63
2016-05-27T10:06:55.464Z,1009.62
2016-05-27T10:07:55.466Z,1009.66
2016-05-27T10:08:55.484Z,1009.62
2016-05-27T10:09:55.487Z,1009.64
2016-05-27T10:10:55.489Z,1009.61
2016-05-27T10:11:55.492Z,1009.58
2016-05-27T10:12:55.496Z,1009.57
2016-05-27T10:13:55.513Z,1009.56
2016-05-27T10:14:55.516Z,1009.55
2016-05-27T10:15:55.518Z,1009.52
2016-05-27T10:16:55.521Z,1009.55
2016-05-27T10:17:55.524Z,1009.54
2016-05-27T10:18:55.543Z,1009.53
2016-05-27T10:19:55.545Z,1009.51
2016-05-27T10:20:55.548Z,1009.51
2016-05-27T10:21:55.550Z,1009.53
2016-05-27T10:22:55.553Z,1009.54
2016-05-27T10:23:55.571Z,1009.53
2016-05-27T10:24:55.574Z,1009.54
2016-05-27T10:25:55.576Z,1009.57
2016-05-27T10:26:55.579Z,1009.58
2016-05-27T10:27:55.582Z,1009.54
2016-05-27T10:28:55.584Z,1009.56
2016-05-27T10:29:55.603Z,1009.58
2016-05-27T10:30:55.606Z,1009.55
2016-05-27T10:31:55.608Z,1009.63
2016-05-27T10:32:55.611Z,1009.6
2016-05-27T10:33:55.630Z,1009.59
2016-05-27T10:34:55.632Z,1009.57
2016-05-27T10:35:55.635Z,1009.57
2016-05-27T10:36:55.638Z,1009.54
2016-05-27T10:37:55.640Z,1009.59
2016-05-27T10:38:55.659Z,1009.57
2016-05-27T10:39:55.661Z,1009.57
2016-05-27T10:40:55.663Z,1009.59
2016-05-27T10:41:55.667Z,1009.61
2016-05-27T10:42:58.091Z,1009.58
2016-05-27T10:43:55.688Z,1009.56
2016-05-27T10:44:55.691Z,1009.59
2016-05-27T10:45:55.693Z,1009.56
2016-05-27T10:46:55.696Z,1009.57
2016-05-27T10:47:57.104Z,1009.51
2016-05-27T10:48:55.701Z,1009.54
2016-05-27T10:49:55.703Z,1009.54
2016-05-27T10:50:55.722Z,1009.56
2016-05-27T10:51:55.726Z,1009.52
2016-05-27T10:52:55.728Z,1009.51
2016-05-27T10:53:55.730Z,1009.5
2016-05-27T10:54:55.748Z,1009.45
2016-05-27T10:55:55.751Z,1009.49
2016-05-27T10:56:55.779Z,1009.5
2016-05-27T10:57:55.808Z,1009.45
2016-05-27T10:58:55.836Z,1009.45
2016-05-27T10:59:55.864Z,1009.48
2016-05-27T11:00:55.909Z,1009.46
2016-05-27T11:01:55.921Z,1009.44
2016-05-27T11:02:55.933Z,1009.45
2016-05-27T11:03:55.945Z,1009.44
2016-05-27T11:04:56.503Z,1009.45
2016-05-27T11:05:55.984Z,1009.46
2016-05-27T11:06:55.990Z,1009.44
2016-05-27T11:07:55.996Z,1009.42
2016-05-27T11:08:56.002Z,1009.41
2016-05-27T11:09:56.008Z,1009.39
2016-05-27T11:10:56.609Z,1009.43
2016-05-27T11:11:56.034Z,1009.41
2016-05-27T11:12:56.038Z,1009.39
2016-05-27T11:13:56.041Z,1009.36
2016-05-27T11:14:56.046Z,1009.36
2016-05-27T11:15:56.066Z,1009.35
2016-05-27T11:16:56.069Z,1009.39
2016-05-27T11:17:56.072Z,1009.38
2016-05-27T11:18:56.074Z,1009.33
2016-05-27T11:19:56.093Z,1009.36
2016-05-27T11:20:58.549Z,1009.38
2016-05-27T11:21:56.099Z,1009.4
2016-05-27T11:22:56.102Z,1009.41
2016-05-27T11:23:56.105Z,1009.4
2016-05-27T11:24:56.108Z,1009.38
2016-05-27T11:25:56.644Z,1009.39
2016-05-27T11:26:56.130Z,1009.41
2016-05-27T11:27:56.133Z,1009.39
2016-05-27T11:28:56.135Z,1009.39
2016-05-27T11:29:56.138Z,1009.4
2016-05-27T11:30:58.124Z,1009.37
2016-05-27T11:31:56.159Z,1009.35
2016-05-27T11:32:56.162Z,1009.35
2016-05-27T11:33:56.164Z,1009.39
2016-05-27T11:34:56.168Z,1009.42
2016-05-27T11:35:56.420Z,1009.36
2016-05-27T11:36:56.187Z,1009.38
2016-05-27T11:37:56.207Z,1009.37
2016-05-27T11:38:56.193Z,1009.34
2016-05-27T11:39:56.196Z,1009.33
2016-05-27T11:40:57.559Z,1009.32
2016-05-27T11:41:56.217Z,1009.31
2016-05-27T11:42:56.220Z,1009.3
2016-05-27T11:43:56.223Z,1009.32
2016-05-27T11:44:56.225Z,1009.35
2016-05-27T11:45:56.681Z,1009.3
2016-05-27T11:46:56.246Z,1009.35
2016-05-27T11:47:56.248Z,1009.32
2016-05-27T11:48:56.251Z,1009.34
2016-05-27T11:49:56.254Z,1009.3
2016-05-27T11:50:56.256Z,1009.33
2016-05-27T11:51:56.276Z,1009.33
2016-05-27T11:52:56.278Z,1009.36
2016-05-27T11:53:56.280Z,1009.35
2016-05-27T11:54:56.283Z,1009.35
2016-05-27T11:55:56.302Z,1009.36
2016-05-27T11:56:56.304Z,1009.39
2016-05-27T11:57:56.307Z,1009.37
2016-05-27T11:58:56.310Z,1009.38
2016-05-27T11:59:56.327Z,1009.37
2016-05-27T12:00:58.050Z,1009.37
2016-05-27T12:01:56.318Z,1009.38
2016-05-27T12:02:56.336Z,1009.36
2016-05-27T12:03:56.338Z,1009.38
2016-05-27T12:04:56.341Z,1009.36
2016-05-27T12:05:58.016Z,1009.35
2016-05-27T12:06:56.363Z,1009.35
2016-05-27T12:07:56.365Z,1009.34
2016-05-27T12:08:56.368Z,1009.34
2016-05-27T12:09:56.370Z,1009.34